Time;durP1;ratioP1;P1;durP2;ratioP2;P2;SDS_P1;SDS_P2;PMS_P1;PMS_P2;Temp;Humidity;BMP_temperature;BMP_pressure;BME280_temperature;BME280_humidity;BME280_pressure;Samples;Min_cycle;Max_cycle;Signal;HPM_P1;HPM_P2
2023/02/12 00:01:33;;;;;;;60.72;26.00;;;6.30;99.90;;;;;;5065427;28;20021;-66
2023/02/12 00:03:59;;;;;;;56.92;26.15;;;6.30;99.90;;;;;;5048521;28;20086;-66
2023/02/12 00:06:25;;;;;;;52.42;25.52;;;6.30;99.90;;;;;;5061100;28;20039;-65
2023/02/12 00:08:53;;;;;;;62.30;26.50;;;6.30;99.90;;;;;;5039398;28;20601;-65
2023/02/12 00:11:23;;;;;;;56.35;24.98;;;6.20;99.90;;;;;;5052858;28;20028;-66
2023/02/12 00:13:49;;;;;;;62.28;25.92;;;6.20;99.90;;;;;;5058883;28;20442;-65
2023/02/12 00:16:18;;;;;;;52.08;23.77;;;6.20;99.90;;;;;;5055489;28;20046;-66
2023/02/12 00:18:44;;;;;;;56.25;25.67;;;6.20;99.90;;;;;;5041949;28;20029;-67
2023/02/12 00:21:10;;;;;;;62.50;25.92;;;6.30;99.90;;;;;;5059776;28;20309;-66
2023/02/12 00:23:37;;;;;;;65.25;25.48;;;6.20;99.90;;;;;;5062000;28;20020;-67
2023/02/12 00:26:07;;;;;;;65.05;26.50;;;6.20;99.90;;;;;;5057956;28;20102;-67
2023/02/12 00:28:32;;;;;;;64.70;27.80;;;6.20;99.90;;;;;;5064640;28;20043;-68
2023/02/12 00:31:02;;;;;;;59.40;25.63;;;6.20;99.90;;;;;;5059996;28;20108;-67
2023/02/12 00:33:28;;;;;;;58.50;25.48;;;6.20;99.90;;;;;;5064793;28;20036;-68
2023/02/12 00:35:55;;;;;;;60.47;25.25;;;6.20;99.90;;;;;;5061921;28;20253;-66
2023/02/12 00:38:21;;;;;;;53.60;24.27;;;6.20;99.90;;;;;;5030564;28;20068;-66
2023/02/12 00:40:47;;;;;;;61.92;26.00;;;6.20;99.90;;;;;;5054011;28;20116;-66
2023/02/12 00:43:13;;;;;;;50.95;23.48;;;6.20;99.90;;;;;;5058520;28;20032;-67
2023/02/12 00:45:38;;;;;;;57.55;25.05;;;6.20;99.90;;;;;;5040217;28;20171;-66
2023/02/12 00:48:04;;;;;;;58.22;24.98;;;6.20;99.90;;;;;;5062709;28;20028;-66
2023/02/12 00:50:30;;;;;;;55.42;24.50;;;6.10;99.90;;;;;;5065262;28;20032;-66
2023/02/12 00:52:55;;;;;;;53.33;23.83;;;6.20;99.90;;;;;;5054778;28;20021;-66
2023/02/12 00:55:21;;;;;;;63.92;25.55;;;6.20;99.90;;;;;;5059196;28;20502;-67
2023/02/12 00:57:46;;;;;;;57.80;25.05;;;6.20;99.90;;;;;;5063869;28;20073;-66
2023/02/12 01:00:13;;;;;;;60.95;25.77;;;6.20;99.90;;;;;;5062846;28;20491;-66
2023/02/12 01:02:39;;;;;;;58.90;24.70;;;6.20;99.90;;;;;;5060065;28;20298;-66
2023/02/12 01:05:05;;;;;;;54.90;24.90;;;6.20;99.90;;;;;;5056930;28;20041;-66
2023/02/12 01:07:30;;;;;;;60.50;25.58;;;6.20;99.90;;;;;;5062101;28;20040;-66
2023/02/12 01:09:56;;;;;;;55.90;24.33;;;6.20;99.90;;;;;;5061259;28;20371;-66
2023/02/12 01:12:21;;;;;;;56.45;25.42;;;6.20;99.90;;;;;;5044701;28;20029;-66
2023/02/12 01:14:47;;;;;;;66.45;26.23;;;6.20;99.90;;;;;;5041389;28;20021;-67
2023/02/12 01:17:13;;;;;;;56.47;24.00;;;6.20;99.90;;;;;;5055833;28;20368;-67
2023/02/12 01:19:38;;;;;;;55.47;23.73;;;6.20;99.90;;;;;;5062471;28;20075;-66
2023/02/12 01:22:04;;;;;;;56.63;24.90;;;6.10;99.90;;;;;;5059924;28;20024;-66
2023/02/12 01:24:29;;;;;;;54.45;23.15;;;6.10;99.90;;;;;;5064057;28;20120;-67
2023/02/12 01:26:55;;;;;;;62.53;24.60;;;6.20;99.90;;;;;;5064270;28;20036;-66
2023/02/12 01:29:21;;;;;;;55.92;24.15;;;6.20;99.90;;;;;;5066234;28;20032;-66
2023/02/12 01:31:46;;;;;;;66.65;26.88;;;6.20;99.90;;;;;;5068069;28;20135;-67
2023/02/12 01:34:12;;;;;;;63.35;26.08;;;6.20;99.90;;;;;;5053792;28;20028;-67
2023/02/12 01:36:38;;;;;;;56.88;26.73;;;6.10;99.90;;;;;;5063233;28;20045;-66
2023/02/12 01:39:05;;;;;;;57.65;26.13;;;6.20;99.90;;;;;;5048968;28;20114;-65
2023/02/12 01:41:37;;;;;;;60.63;26.35;;;6.10;99.90;;;;;;5067391;28;20024;-67
2023/02/12 01:44:09;;;;;;;57.63;26.27;;;6.10;99.90;;;;;;5067079;28;20478;-66
2023/02/12 01:46:35;;;;;;;58.38;26.77;;;6.10;99.90;;;;;;5068170;28;20021;-66
2023/02/12 01:49:03;;;;;;;59.92;25.52;;;6.10;99.90;;;;;;5064856;28;20565;-66
2023/02/12 01:51:29;;;;;;;60.33;26.25;;;6.10;99.90;;;;;;5060304;28;20294;-66
2023/02/12 01:53:59;;;;;;;58.45;26.92;;;6.10;99.90;;;;;;5072173;28;20089;-66
2023/02/12 01:56:24;;;;;;;59.10;27.48;;;6.10;99.90;;;;;;5063991;28;20012;-66
2023/02/12 01:58:52;;;;;;;62.45;25.00;;;6.00;99.90;;;;;;5068574;28;20032;-67
2023/02/12 02:01:22;;;;;;;56.30;25.20;;;6.00;99.90;;;;;;5068599;28;20017;-68
2023/02/12 02:03:52;;;;;;;53.65;22.77;;;6.10;99.90;;;;;;5062974;28;20031;-66
2023/02/12 02:06:26;;;;;;;58.88;25.95;;;6.10;99.90;;;;;;5062823;28;20069;-66
2023/02/12 02:08:52;;;;;;;58.47;25.52;;;6.10;99.90;;;;;;5061228;28;20025;-66
2023/02/12 02:17:03;;;;;;;58.00;24.75;;;6.10;99.90;;;;;;5065487;28;19915;-65
2023/02/12 02:19:47;;;;;;;59.03;25.23;;;6.10;99.90;;;;;;5045568;28;20119;-65
2023/02/12 02:22:36;;;;;;;58.33;25.00;;;6.10;99.90;;;;;;5045179;28;20039;-66
2023/02/12 02:25:40;;;;;;;61.25;25.80;;;6.10;99.90;;;;;;5060788;28;20025;-66
2023/02/12 02:28:53;;;;;;;52.03;23.13;;;6.10;99.90;;;;;;5063203;28;20037;-66
2023/02/12 02:31:42;;;;;;;57.65;24.23;;;6.10;99.90;;;;;;5052772;28;20044;-65
2023/02/12 02:34:16;;;;;;;53.80;24.00;;;6.10;99.90;;;;;;5057722;28;20036;-66
2023/02/12 02:36:53;;;;;;;57.35;25.20;;;6.10;99.90;;;;;;5060402;28;20129;-66
2023/02/12 02:39:38;;;;;;;52.38;24.45;;;6.10;99.90;;;;;;5039639;28;20041;-67
2023/02/12 02:42:09;;;;;;;59.38;26.20;;;6.10;99.90;;;;;;5062186;28;20079;-67
2023/02/12 02:45:21;;;;;;;58.10;24.52;;;6.10;99.90;;;;;;5047049;28;20120;-66
2023/02/12 02:48:24;;;;;;;60.58;24.33;;;6.10;99.90;;;;;;5028228;28;20056;-66
2023/02/12 02:50:56;;;;;;;61.35;25.23;;;6.10;99.90;;;;;;5058883;28;20028;-66
2023/02/12 02:53:30;;;;;;;59.85;24.83;;;6.10;99.90;;;;;;5063299;28;20040;-66
2023/02/12 02:56:00;;;;;;;58.58;26.23;;;6.10;99.90;;;;;;5065388;28;20043;-67
2023/02/12 02:58:34;;;;;;;65.68;27.23;;;6.10;99.90;;;;;;5061142;28;20419;-66
2023/02/12 03:01:05;;;;;;;57.08;25.02;;;6.10;99.90;;;;;;5060248;28;20032;-66
2023/02/12 03:03:41;;;;;;;62.97;24.95;;;6.10;99.90;;;;;;5059501;28;20063;-65
2023/02/12 03:06:13;;;;;;;62.95;26.52;;;6.10;99.90;;;;;;5066424;28;20074;-66
2023/02/12 03:08:45;;;;;;;68.53;26.10;;;6.10;99.90;;;;;;5071272;28;20561;-68
2023/02/12 03:11:26;;;;;;;61.55;27.33;;;6.10;99.90;;;;;;5071165;28;20009;-66
2023/02/12 03:14:02;;;;;;;65.82;26.65;;;6.10;99.90;;;;;;5067183;28;20025;-66
2023/02/12 03:16:32;;;;;;;79.80;30.70;;;6.10;99.90;;;;;;5049657;22;20029;-63
2023/02/12 03:19:23;;;;;;;61.45;24.30;;;6.10;99.90;;;;;;5022244;28;20022;-64
2023/02/12 03:22:01;;;;;;;64.53;25.48;;;6.10;99.90;;;;;;5016948;28;20034;-63
2023/02/12 03:24:35;;;;;;;58.17;26.42;;;6.10;99.90;;;;;;5025466;28;20026;-63
2023/02/12 03:27:16;;;;;;;68.90;26.75;;;6.10;99.90;;;;;;5016636;28;20052;-63
2023/02/12 03:29:43;;;;;;;65.75;26.25;;;6.10;99.90;;;;;;5026547;28;20463;-64
2023/02/12 03:32:17;;;;;;;68.18;26.85;;;6.10;99.90;;;;;;5016333;28;20557;-64
2023/02/12 03:35:13;;;;;;;69.38;28.15;;;6.10;99.90;;;;;;5029250;28;20064;-65
2023/02/12 03:38:09;;;;;;;67.55;27.23;;;6.10;99.90;;;;;;5022017;28;20489;-65
2023/02/12 03:40:57;;;;;;;61.83;25.38;;;6.20;99.90;;;;;;5003930;28;20041;-64
2023/02/12 03:43:49;;;;;;;60.60;26.17;;;6.10;99.90;;;;;;4997232;28;20549;-64
2023/02/12 03:46:21;;;;;;;58.22;23.98;;;6.10;99.90;;;;;;5010985;28;20025;-64
2023/02/12 03:49:05;;;;;;;62.55;27.05;;;6.10;99.90;;;;;;5027283;28;20667;-64
2023/02/12 03:51:38;;;;;;;65.22;24.60;;;6.10;99.90;;;;;;5030092;28;20025;-64
2023/02/12 03:54:06;;;;;;;64.18;26.17;;;6.10;99.90;;;;;;5029356;28;20124;-64
2023/02/12 03:56:42;;;;;;;65.38;26.02;;;6.10;99.90;;;;;;5022620;28;20500;-64
2023/02/12 03:59:07;;;;;;;74.03;29.27;;;6.10;99.90;;;;;;5020237;28;20061;-64
2023/02/12 04:01:34;;;;;;;64.90;26.30;;;6.10;99.90;;;;;;5013153;28;20083;-64
2023/02/12 04:04:04;;;;;;;61.83;27.50;;;6.20;99.90;;;;;;5022045;28;20033;-65
2023/02/12 04:06:30;;;;;;;53.70;22.65;;;6.10;99.90;;;;;;5020081;28;20112;-65
2023/02/12 04:09:00;;;;;;;49.38;23.88;;;6.10;99.90;;;;;;5004731;28;20035;-65
2023/02/12 04:11:49;;;;;;;56.35;25.08;;;6.10;99.90;;;;;;5024146;28;20021;-65
2023/02/12 04:14:45;;;;;;;58.85;24.38;;;6.10;99.90;;;;;;5020993;28;20044;-65
2023/02/12 04:18:10;;;;;;;57.65;25.45;;;6.10;99.90;;;;;;5021445;28;20123;-65
2023/02/12 04:20:36;;;;;;;68.28;27.48;;;6.10;99.90;;;;;;4922876;29;20071;-64
2023/02/12 04:23:34;;;;;;;64.88;27.00;;;6.10;99.90;;;;;;4923566;29;20036;-63
2023/02/12 04:26:08;;;;;;;60.28;25.38;;;6.10;99.90;;;;;;4986977;28;20042;-63
2023/02/12 04:28:50;;;;;;;;;;;6.00;99.90;;;;;;5020671;28;20040;-64
2023/02/12 04:31:21;;;;;;;57.40;23.58;;;6.00;99.90;;;;;;5004382;28;19916;-64
2023/02/12 04:34:11;;;;;;;63.50;26.42;;;6.00;99.90;;;;;;5023811;28;20056;-64
2023/02/12 04:36:48;;;;;;;67.70;25.10;;;6.00;99.90;;;;;;5002734;28;20056;-63
2023/02/12 04:39:24;;;;;;;66.75;27.77;;;6.00;99.90;;;;;;5025318;28;20029;-64
2023/02/12 04:41:50;;;;;;;66.82;27.60;;;6.00;99.90;;;;;;5006859;28;20119;-64
2023/02/12 04:44:21;;;;;;;57.10;26.75;;;5.90;99.90;;;;;;5033018;28;20088;-63
2023/02/12 04:46:46;;;;;;;58.20;26.38;;;5.90;99.90;;;;;;5011317;28;20026;-63
2023/02/12 04:49:15;;;;;;;58.00;25.73;;;5.90;99.90;;;;;;5014553;28;20049;-64
2023/02/12 04:51:41;;;;;;;58.03;24.55;;;6.00;99.90;;;;;;4996588;28;20022;-64
2023/02/12 04:54:07;;;;;;;59.97;25.67;;;5.90;99.90;;;;;;5014232;28;20156;-63
2023/02/12 04:56:33;;;;;;;67.57;27.33;;;5.90;99.90;;;;;;5025189;28;20108;-64
2023/02/12 04:58:58;;;;;;;67.13;27.45;;;5.90;99.90;;;;;;5033162;28;20025;-64
2023/02/12 05:01:24;;;;;;;64.40;26.60;;;5.90;99.90;;;;;;5028787;28;20038;-64
2023/02/12 05:03:51;;;;;;;61.30;27.00;;;5.90;99.90;;;;;;5013866;28;20048;-64
2023/02/12 05:06:17;;;;;;;63.78;25.63;;;6.00;99.90;;;;;;5020091;28;20095;-63
2023/02/12 05:08:42;;;;;;;67.53;26.00;;;6.00;99.90;;;;;;5018485;28;20476;-64
2023/02/12 05:11:09;;;;;;;60.28;26.30;;;6.00;99.90;;;;;;5024548;28;20524;-65
2023/02/12 05:13:35;;;;;;;57.65;24.33;;;5.90;99.90;;;;;;5023809;28;20112;-65
2023/02/12 05:16:05;;;;;;;60.85;25.10;;;5.90;99.90;;;;;;5021903;28;20072;-64
2023/02/12 05:18:32;;;;;;;58.00;24.58;;;6.00;99.90;;;;;;5024792;28;20022;-65
2023/02/12 05:21:00;;;;;;;62.72;25.85;;;5.90;99.90;;;;;;5021548;28;20041;-65
2023/02/12 05:23:34;;;;;;;69.57;27.75;;;6.00;99.90;;;;;;5022023;28;20653;-64
2023/02/12 05:26:01;;;;;;;62.88;25.80;;;5.90;99.90;;;;;;5016879;28;20400;-63
2023/02/12 05:28:28;;;;;;;65.25;25.48;;;5.90;99.90;;;;;;5025915;28;20056;-64
2023/02/12 05:30:54;;;;;;;65.82;28.00;;;5.90;99.90;;;;;;5008394;28;20038;-65
2023/02/12 05:33:19;;;;;;;61.67;26.70;;;5.90;99.90;;;;;;5027489;28;20382;-65
2023/02/12 05:35:45;;;;;;;66.60;27.30;;;5.90;99.90;;;;;;5029416;28;20477;-64
2023/02/12 05:38:10;;;;;;;57.97;25.88;;;5.90;99.90;;;;;;5019876;28;20075;-64
2023/02/12 05:40:39;;;;;;;56.75;26.02;;;5.90;99.90;;;;;;5016884;28;20063;-64
2023/02/12 05:43:04;;;;;;;59.53;24.38;;;5.90;99.90;;;;;;5010602;28;20052;-65
2023/02/12 05:45:32;;;;;;;64.65;25.67;;;5.80;99.90;;;;;;5032827;28;20681;-65
2023/02/12 05:47:57;;;;;;;61.25;27.58;;;5.80;99.90;;;;;;5033225;28;20053;-63
2023/02/12 05:50:23;;;;;;;58.60;23.27;;;5.80;99.90;;;;;;5033576;28;20032;-64
2023/02/12 05:52:48;;;;;;;60.35;25.17;;;5.80;99.90;;;;;;5030851;28;20490;-64
2023/02/12 05:55:14;;;;;;;55.25;25.98;;;5.80;99.90;;;;;;5024430;28;20030;-64
2023/02/12 05:57:39;;;;;;;63.00;26.60;;;5.80;99.90;;;;;;5020359;28;20038;-64
2023/02/12 06:00:08;;;;;;;55.05;24.33;;;5.90;99.90;;;;;;5013686;28;20116;-65
2023/02/12 06:02:34;;;;;;;58.38;24.95;;;5.90;99.90;;;;;;5027425;28;20471;-64
2023/02/12 06:05:00;;;;;;;59.22;25.00;;;5.90;99.90;;;;;;5029905;28;20065;-64
2023/02/12 06:07:26;;;;;;;57.15;25.83;;;5.90;99.90;;;;;;5022594;28;20071;-63
2023/02/12 06:09:53;;;;;;;54.40;24.73;;;5.90;99.90;;;;;;5024693;28;20053;-63
2023/02/12 06:12:19;;;;;;;59.00;25.95;;;5.90;99.90;;;;;;5021960;28;20083;-64
2023/02/12 06:14:45;;;;;;;61.33;27.30;;;5.90;99.90;;;;;;5023909;28;20033;-64
2023/02/12 06:17:10;;;;;;;62.55;26.58;;;5.90;99.90;;;;;;5025785;28;20037;-65
2023/02/12 06:19:36;;;;;;;64.25;26.65;;;6.00;99.90;;;;;;5020295;28;20032;-65
2023/02/12 06:22:01;;;;;;;71.10;27.65;;;6.00;99.90;;;;;;5007086;28;20041;-65
2023/02/12 06:24:27;;;;;;;71.38;28.40;;;6.00;99.90;;;;;;5023540;28;20033;-64
2023/02/12 06:26:53;;;;;;;64.65;26.45;;;6.00;99.90;;;;;;5019412;28;20075;-64
2023/02/12 06:29:20;;;;;;;63.90;27.25;;;6.00;99.90;;;;;;5022665;28;21004;-65
2023/02/12 06:31:46;;;;;;;68.65;26.67;;;6.00;99.90;;;;;;5023835;28;20143;-65
2023/02/12 06:34:13;;;;;;;59.83;25.95;;;5.90;99.90;;;;;;5021246;28;20574;-65
2023/02/12 06:36:43;;;;;;;62.35;26.75;;;5.90;99.90;;;;;;5017583;28;20536;-65
2023/02/12 06:39:09;;;;;;;74.10;28.83;;;5.90;99.90;;;;;;5009399;28;20676;-64
2023/02/12 06:41:35;;;;;;;75.45;29.83;;;5.90;99.90;;;;;;5021023;28;20025;-65
2023/02/12 06:44:01;;;;;;;75.85;29.67;;;6.00;99.90;;;;;;4999975;28;20041;-63
2023/02/12 06:46:26;;;;;;;76.80;30.38;;;6.00;99.90;;;;;;5021408;28;20037;-65
2023/02/12 06:48:54;;;;;;;79.22;29.67;;;6.00;99.90;;;;;;5022733;28;20037;-63
2023/02/12 06:51:22;;;;;;;76.72;29.40;;;6.00;99.90;;;;;;5002672;28;20436;-64
2023/02/12 06:53:49;;;;;;;77.50;30.30;;;6.00;99.90;;;;;;5020249;28;20040;-65
2023/02/12 06:56:15;;;;;;;85.40;31.45;;;6.00;99.90;;;;;;5019747;28;20018;-65
2023/02/12 06:58:45;;;;;;;83.22;30.92;;;5.90;99.90;;;;;;5018635;28;20414;-65
2023/02/12 07:01:16;;;;;;;77.28;31.95;;;6.00;99.90;;;;;;5018218;28;20041;-63
2023/02/12 07:03:46;;;;;;;82.85;31.17;;;6.00;99.90;;;;;;5005154;28;20484;-65
2023/02/12 07:06:11;;;;;;;91.35;32.33;;;6.00;99.90;;;;;;5023683;28;20108;-64
2023/02/12 07:08:37;;;;;;;87.85;30.10;;;6.00;99.90;;;;;;5023067;28;20113;-63
2023/02/12 07:11:03;;;;;;;81.32;31.00;;;6.00;99.90;;;;;;5004650;28;20041;-65
2023/02/12 07:13:29;;;;;;;87.18;34.22;;;6.10;99.90;;;;;;5020637;28;20029;-64
2023/02/12 07:15:54;;;;;;;90.07;32.78;;;6.00;99.90;;;;;;5028796;28;20646;-64
2023/02/12 07:18:20;;;;;;;88.60;31.23;;;6.10;99.90;;;;;;5023785;28;20377;-64
2023/02/12 07:20:46;;;;;;;86.43;32.47;;;6.10;99.90;;;;;;5022726;28;20029;-64
2023/02/12 07:23:11;;;;;;;93.43;32.65;;;6.10;99.90;;;;;;5006812;28;20025;-62
2023/02/12 07:25:37;;;;;;;91.47;32.58;;;6.20;99.90;;;;;;5003926;28;20595;-61
2023/02/12 07:28:03;;;;;;;96.15;33.63;;;6.20;99.90;;;;;;5005397;28;20083;-63
2023/02/12 07:30:29;;;;;;;80.18;30.73;;;6.20;99.90;;;;;;5006507;28;20179;-63
2023/02/12 07:32:55;;;;;;;85.20;33.10;;;6.30;99.90;;;;;;5028016;28;20029;-64
2023/02/12 07:35:20;;;;;;;86.25;34.38;;;6.30;99.90;;;;;;5030080;28;20092;-63
2023/02/12 07:37:46;;;;;;;92.65;33.70;;;6.30;99.90;;;;;;5029758;28;20055;-64
2023/02/12 07:40:11;;;;;;;78.90;32.03;;;6.30;99.90;;;;;;5030737;28;20044;-65
2023/02/12 07:42:37;;;;;;;86.43;32.47;;;6.30;99.90;;;;;;5022421;28;20029;-65
2023/02/12 07:45:03;;;;;;;85.22;33.92;;;6.40;99.90;;;;;;5012009;28;20132;-64
2023/02/12 07:47:29;;;;;;;82.45;32.83;;;6.40;99.90;;;;;;5030775;28;20036;-64
2023/02/12 07:49:54;;;;;;;83.05;31.95;;;6.40;99.90;;;;;;5024988;28;20503;-64
2023/02/12 07:52:20;;;;;;;74.18;29.10;;;6.40;99.90;;;;;;5020144;28;20021;-64
2023/02/12 07:54:46;;;;;;;86.30;31.27;;;6.50;99.90;;;;;;5023255;28;20507;-64
2023/02/12 07:57:12;;;;;;;83.32;33.78;;;6.50;99.90;;;;;;5030345;28;20504;-63
2023/02/12 07:59:37;;;;;;;82.78;31.88;;;6.50;99.90;;;;;;5031190;28;20029;-64
2023/02/12 08:02:03;;;;;;;80.60;30.92;;;6.60;99.90;;;;;;5021594;28;20028;-63
2023/02/12 08:04:28;;;;;;;87.55;33.35;;;6.60;99.90;;;;;;5021457;28;20039;-64
2023/02/12 08:06:55;;;;;;;149.35;52.85;;;6.70;99.90;;;;;;5019845;28;20045;-65
2023/02/12 08:09:23;;;;;;;131.90;47.72;;;6.70;99.90;;;;;;5026897;28;20033;-64
2023/02/12 08:11:48;;;;;;;104.07;39.92;;;6.80;99.90;;;;;;5023803;28;20030;-64
2023/02/12 08:14:16;;;;;;;90.88;33.65;;;6.80;99.90;;;;;;5027187;28;20484;-64
2023/02/12 08:16:44;;;;;;;85.57;31.55;;;6.80;99.90;;;;;;5025788;28;20031;-64
2023/02/12 08:19:10;;;;;;;89.07;32.60;;;6.90;99.90;;;;;;5010697;28;20961;-63
2023/02/12 08:21:36;;;;;;;78.80;29.85;;;7.00;99.90;;;;;;5017008;28;20026;-64
2023/02/12 08:24:02;;;;;;;80.40;31.33;;;7.00;99.90;;;;;;5005402;28;20044;-64
2023/02/12 08:26:33;;;;;;;71.95;30.05;;;7.10;99.90;;;;;;5021182;28;20032;-65
2023/02/12 08:29:01;;;;;;;70.65;30.92;;;7.10;99.90;;;;;;5029756;28;20526;-64
2023/02/12 08:31:29;;;;;;;77.90;30.55;;;7.20;99.90;;;;;;5026829;28;20044;-64
2023/02/12 08:33:55;;;;;;;81.60;33.22;;;7.20;99.90;;;;;;5025803;28;20107;-64
2023/02/12 08:36:30;;;;;;;89.03;34.92;;;7.20;99.90;;;;;;5020806;28;20041;-63
2023/02/12 08:38:58;;;;;;;68.60;30.42;;;7.30;99.90;;;;;;5018765;28;20028;-64
2023/02/12 08:41:26;;;;;;;76.05;32.75;;;7.30;99.90;;;;;;5024987;28;20029;-64
2023/02/12 08:43:54;;;;;;;63.30;28.27;;;7.50;99.90;;;;;;5006779;28;20109;-64
2023/02/12 08:46:23;;;;;;;75.72;32.78;;;7.50;99.90;;;;;;5012665;28;20030;-64
2023/02/12 08:48:53;;;;;;;73.00;30.33;;;7.60;99.90;;;;;;5021718;28;20027;-65
2023/02/12 08:51:22;;;;;;;67.00;29.58;;;7.70;99.90;;;;;;5027351;28;20025;-64
2023/02/12 08:53:51;;;;;;;71.25;31.23;;;7.70;99.90;;;;;;5022088;28;20595;-65
2023/02/12 08:56:17;;;;;;;67.88;30.38;;;7.70;99.90;;;;;;5023914;28;20381;-65
2023/02/12 08:58:44;;;;;;;79.40;36.90;;;7.90;99.90;;;;;;5023199;28;20022;-63
2023/02/12 09:01:12;;;;;;;80.00;34.08;;;7.90;99.90;;;;;;5021645;28;20030;-64
2023/02/12 09:03:38;;;;;;;70.82;31.50;;;8.00;99.90;;;;;;5026083;28;20026;-64
2023/02/12 09:06:05;;;;;;;67.15;33.38;;;8.10;99.90;;;;;;5025721;28;20038;-64
2023/02/12 09:08:32;;;;;;;74.57;30.52;;;8.10;99.90;;;;;;5018570;28;20477;-64
2023/02/12 09:10:58;;;;;;;75.03;36.58;;;8.10;99.90;;;;;;5018697;28;20031;-65
2023/02/12 09:13:24;;;;;;;76.00;33.15;;;8.10;99.90;;;;;;5018229;28;20033;-63
2023/02/12 09:15:50;;;;;;;75.72;32.60;;;8.10;99.90;;;;;;5027109;28;20030;-63
2023/02/12 09:18:15;;;;;;;74.63;34.05;;;8.00;99.90;;;;;;5022318;28;20044;-64
2023/02/12 09:20:43;;;;;;;71.90;32.75;;;8.10;99.90;;;;;;5051140;22;20045;-65
2023/02/12 09:23:13;;;;;;;70.68;30.42;;;8.20;99.90;;;;;;5025858;28;20053;-66
2023/02/12 09:25:41;;;;;;;63.70;30.55;;;8.20;99.90;;;;;;5019184;28;20021;-65
2023/02/12 09:28:07;;;;;;;69.97;30.50;;;8.30;99.90;;;;;;5024585;28;20038;-65
2023/02/12 09:30:33;;;;;;;68.50;29.17;;;8.40;99.90;;;;;;5024445;28;20064;-66
2023/02/12 09:32:58;;;;;;;70.53;28.80;;;8.30;99.90;;;;;;5022315;28;20054;-66
2023/02/12 09:35:24;;;;;;;63.05;28.98;;;8.40;99.90;;;;;;5028329;28;20086;-66
2023/02/12 09:37:52;;;;;;;69.90;31.92;;;8.50;99.90;;;;;;5021708;28;20134;-67
2023/02/12 09:40:36;;;;;;;70.70;31.48;;;8.60;99.90;;;;;;5026839;28;20507;-65
2023/02/12 09:43:17;;;;;;;68.05;30.88;;;8.60;99.90;;;;;;5021751;28;20072;-66
2023/02/12 09:46:03;;;;;;;72.45;31.17;;;8.70;99.90;;;;;;5006109;28;20080;-66
2023/02/12 09:48:32;;;;;;;67.60;30.20;;;8.70;99.90;;;;;;5022826;28;20041;-65
2023/02/12 09:51:01;;;;;;;70.35;31.45;;;8.70;99.90;;;;;;5024673;28;20388;-66
2023/02/12 09:53:30;;;;;;;65.10;30.48;;;8.70;99.90;;;;;;5022796;28;20076;-65
2023/02/12 09:55:55;;;;;;;67.60;31.23;;;8.70;99.90;;;;;;5020595;28;20407;-64
2023/02/12 09:58:30;;;;;;;66.68;31.70;;;8.70;99.90;;;;;;5025623;28;20033;-66
2023/02/12 10:00:56;;;;;;;72.18;30.67;;;8.80;99.90;;;;;;5032786;28;20056;-65
2023/02/12 10:03:22;;;;;;;76.38;30.40;;;8.80;99.90;;;;;;5030587;28;20392;-66
2023/02/12 10:06:03;;;;;;;62.28;27.90;;;8.70;99.90;;;;;;5025037;28;20028;-64
2023/02/12 10:08:35;;;;;;;68.55;29.13;;;8.70;99.90;;;;;;5021225;28;20033;-66
2023/02/12 10:11:21;;;;;;;63.80;27.85;;;8.70;99.90;;;;;;5006582;28;20083;-64
2023/02/12 10:13:50;;;;;;;62.88;30.38;;;9.00;99.90;;;;;;5020669;28;21505;-64
2023/02/12 10:16:55;;;;;;;68.35;28.33;;;9.10;99.90;;;;;;5019790;28;20018;-65
2023/02/12 10:19:50;;;;;;;60.85;28.83;;;9.10;99.90;;;;;;5020930;28;20032;-65
2023/02/12 10:22:21;;;;;;;67.15;28.83;;;9.30;99.90;;;;;;5019253;28;20052;-64
2023/02/12 10:24:53;;;;;;;63.03;27.65;;;9.30;99.90;;;;;;5021134;28;20378;-66
2023/02/12 10:27:44;;;;;;;64.80;26.98;;;9.40;99.90;;;;;;5022308;28;20068;-66
2023/02/12 10:30:41;;;;;;;73.45;32.95;;;9.70;99.90;;;;;;5027947;28;20496;-66
2023/02/12 10:33:15;;;;;;;65.03;28.05;;;9.90;99.90;;;;;;5024050;28;20045;-65
2023/02/12 10:36:21;;;;;;;57.83;26.27;;;9.90;99.90;;;;;;5026400;28;20049;-66
2023/02/12 10:38:52;;;;;;;58.55;28.23;;;10.10;99.90;;;;;;5003769;28;20064;-67
2023/02/12 10:41:17;;;;;;;60.45;28.35;;;10.40;99.90;;;;;;5009466;28;20082;-65
2023/02/12 10:43:43;;;;;;;49.72;23.20;;;10.40;99.90;;;;;;5027976;28;20038;-67
2023/02/12 10:46:15;;;;;;;52.38;25.52;;;10.60;99.90;;;;;;4998071;28;20397;-66
2023/02/12 10:48:44;;;;;;;52.92;23.45;;;10.70;99.90;;;;;;5027650;28;20026;-67
2023/02/12 10:51:19;;;;;;;47.28;22.83;;;10.80;99.90;;;;;;5027433;28;20026;-66
2023/02/12 10:53:45;;;;;;;48.95;22.70;;;10.90;99.90;;;;;;5020703;28;20075;-66
2023/02/12 10:56:11;;;;;;;51.88;22.35;;;10.90;99.90;;;;;;5013141;28;20537;-67
2023/02/12 10:58:40;;;;;;;43.42;21.42;;;10.90;99.90;;;;;;5007786;28;20029;-66
2023/02/12 11:01:15;;;;;;;38.00;18.88;;;11.10;99.90;;;;;;5020689;28;20069;-67
2023/02/12 11:03:41;;;;;;;45.40;20.30;;;10.80;99.90;;;;;;5022140;28;21329;-66
2023/02/12 11:06:16;;;;;;;46.08;21.10;;;10.90;99.90;;;;;;5027315;28;20029;-67
2023/02/12 11:08:43;;;;;;;42.95;19.80;;;10.90;99.90;;;;;;5028503;28;20028;-65
2023/02/12 11:11:17;;;;;;;45.35;20.92;;;10.90;99.90;;;;;;5024084;28;20114;-66
2023/02/12 11:13:56;;;;;;;47.55;20.80;;;10.70;99.90;;;;;;5022451;28;20508;-65
2023/02/12 11:16:33;;;;;;;43.92;19.65;;;10.60;99.90;;;;;;5023359;28;20052;-65
2023/02/12 11:19:23;;;;;;;43.38;21.17;;;10.60;99.90;;;;;;5024446;28;20080;-66
2023/02/12 11:21:50;;;;;;;46.58;22.13;;;10.60;99.90;;;;;;5015213;28;20071;-65
2023/02/12 11:24:32;;;;;;;49.65;22.35;;;10.70;99.90;;;;;;5029757;28;20484;-67
2023/02/12 11:27:12;;;;;;;44.03;19.63;;;10.70;99.90;;;;;;5023361;28;20025;-65
2023/02/12 11:29:38;;;;;;;39.90;19.85;;;10.70;99.90;;;;;;5022910;28;20026;-67
2023/02/12 11:32:11;;;;;;;45.10;20.52;;;10.60;99.90;;;;;;5025860;28;20067;-67
2023/02/12 11:34:37;;;;;;;42.85;19.70;;;10.80;99.90;;;;;;5025037;28;20428;-67
2023/02/12 11:37:04;;;;;;;41.30;19.10;;;10.70;99.90;;;;;;5015853;28;20025;-66
2023/02/12 11:39:33;;;;;;;37.13;18.02;;;10.80;99.90;;;;;;5020914;28;20025;-65
2023/02/12 11:42:05;;;;;;;43.38;18.88;;;10.70;99.90;;;;;;5020472;28;20394;-66
2023/02/12 11:44:34;;;;;;;37.72;18.67;;;10.80;99.90;;;;;;5023393;28;20032;-66
2023/02/12 11:47:08;;;;;;;39.78;18.85;;;11.00;99.90;;;;;;5001971;28;20017;-65
2023/02/12 11:49:50;;;;;;;36.77;18.37;;;11.00;99.90;;;;;;5027563;28;20562;-66
2023/02/12 11:52:27;;;;;;;36.60;18.08;;;10.90;99.90;;;;;;5020304;28;20369;-65
2023/02/12 11:54:57;;;;;;;38.55;19.92;;;10.90;99.90;;;;;;4997766;28;20037;-67
2023/02/12 11:57:42;;;;;;;43.00;19.10;;;10.80;99.90;;;;;;5022890;28;20487;-66
2023/02/12 12:00:18;;;;;;;36.63;18.73;;;10.90;99.90;;;;;;5015112;28;20052;-67
2023/02/12 12:03:22;;;;;;;40.00;18.77;;;11.00;99.90;;;;;;5015883;28;20033;-67
2023/02/12 12:05:55;;;;;;;35.38;18.20;;;10.80;99.90;;;;;;4971436;28;20531;-66
2023/02/12 12:08:37;;;;;;;37.28;18.20;;;11.00;99.90;;;;;;5020647;28;20270;-66
2023/02/12 12:11:27;;;;;;;35.35;17.90;;;11.00;99.90;;;;;;5027609;28;20488;-66
2023/02/12 12:14:00;;;;;;;33.20;17.05;;;11.10;99.90;;;;;;5022886;28;20034;-66
2023/02/12 12:19:58;;;;;;;33.65;16.85;;;11.40;99.90;;;;;;5019852;28;20079;-66
2023/02/12 12:22:39;;;;;;;33.72;17.77;;;11.40;99.90;;;;;;5017165;28;20025;-71
2023/02/12 12:25:12;;;;;;;34.20;17.17;;;11.60;99.90;;;;;;5015413;28;20033;-67
2023/02/12 12:28:01;;;;;;;30.88;16.60;;;11.50;99.90;;;;;;5016621;28;20500;-66
2023/02/12 12:30:33;;;;;;;42.78;17.60;;;11.60;99.90;;;;;;5023042;28;20053;-67
2023/02/12 12:33:03;;;;;;;30.55;15.77;;;11.70;99.90;;;;;;5025967;28;20062;-66
2023/02/12 12:35:44;;;;;;;34.90;17.95;;;11.80;99.90;;;;;;5026507;28;20024;-66
2023/02/12 12:38:24;;;;;;;30.25;15.40;;;11.50;99.90;;;;;;4984161;28;20080;-67
2023/02/12 12:41:01;;;;;;;35.72;16.73;;;11.50;99.90;;;;;;5002737;28;20037;-67
2023/02/12 12:43:46;;;;;;;30.65;16.40;;;11.60;99.90;;;;;;5021432;28;20021;-66
2023/02/12 12:46:32;;;;;;;30.30;15.05;;;11.70;99.90;;;;;;5027366;28;20040;-67
2023/02/12 12:49:30;;;;;;;31.70;16.73;;;11.60;99.90;;;;;;4972801;28;20046;-69
2023/02/12 12:52:15;;;;;;;35.55;16.50;;;11.50;99.90;;;;;;5023537;28;20123;-67
2023/02/12 12:54:49;;;;;;;27.08;14.77;;;11.80;99.90;;;;;;5015123;28;20445;-68
2023/02/12 12:57:33;;;;;;;27.35;15.15;;;12.10;99.90;;;;;;5027154;28;20032;-67
2023/02/12 13:00:13;;;;;;;30.33;15.02;;;12.10;99.90;;;;;;5025585;28;20026;-67
2023/02/12 13:03:12;;;;;;;31.23;14.75;;;11.90;99.90;;;;;;5030153;28;20029;-67
2023/02/12 13:06:34;;;;;;;32.15;15.27;;;12.00;99.90;;;;;;5030507;28;20028;-67
2023/02/12 13:09:11;;;;;;;29.58;13.77;;;12.00;99.90;;;;;;4966508;28;20042;-66